sensor_id;sensor_type;location;lat;lon;timestamp;pressure;altitude;pressure_sealevel;temperature;humidity
29879;BME280;16752;53.364;-1.488;2023-04-19T00:01:22;101835.22;;;15.32;41.61
29879;BME280;16752;53.364;-1.488;2023-04-19T00:04:07;101871.59;;;15.55;41.80
29879;BME280;16752;53.364;-1.488;2023-04-19T00:06:51;101840.09;;;15.38;41.74
29879;BME280;16752;53.364;-1.488;2023-04-19T00:09:35;101849.25;;;15.47;41.44
29879;BME280;16752;53.364;-1.488;2023-04-19T00:12:20;101825.88;;;15.26;41.58
29879;BME280;16752;53.364;-1.488;2023-04-19T00:15:05;101853.50;;;15.49;41.42
29879;BME280;16752;53.364;-1.488;2023-04-19T00:17:49;101850.03;;;15.20;41.99
29879;BME280;16752;53.364;-1.488;2023-04-19T00:20:33;101824.28;;;15.10;41.92
29879;BME280;16752;53.364;-1.488;2023-04-19T00:23:17;101804.94;;;15.09;42.15
29879;BME280;16752;53.364;-1.488;2023-04-19T00:26:02;101849.53;;;15.28;42.11
29879;BME280;16752;53.364;-1.488;2023-04-19T00:28:47;101830.22;;;15.27;41.78
29879;BME280;16752;53.364;-1.488;2023-04-19T00:31:31;101841.63;;;15.00;42.70
29879;BME280;16752;53.364;-1.488;2023-04-19T00:34:15;101772.53;;;14.93;42.10
29879;BME280;16752;53.364;-1.488;2023-04-19T00:36:59;101832.97;;;15.26;42.10
29879;BME280;16752;53.364;-1.488;2023-04-19T00:39:43;101824.00;;;15.43;41.70
29879;BME280;16752;53.364;-1.488;2023-04-19T00:42:26;101764.22;;;15.13;41.63
29879;BME280;16752;53.364;-1.488;2023-04-19T00:45:10;101845.84;;;15.73;41.34
29879;BME280;16752;53.364;-1.488;2023-04-19T00:47:55;101827.34;;;15.73;41.29
29879;BME280;16752;53.364;-1.488;2023-04-19T00:50:40;101789.59;;;15.57;41.12
29879;BME280;16752;53.364;-1.488;2023-04-19T00:53:25;101842.47;;;15.98;41.17
29879;BME280;16752;53.364;-1.488;2023-04-19T00:56:09;101787.06;;;15.55;41.08
29879;BME280;16752;53.364;-1.488;2023-04-19T00:58:54;101777.19;;;15.59;41.05
29879;BME280;16752;53.364;-1.488;2023-04-19T01:01:39;101846.13;;;16.10;40.99
29879;BME280;16752;53.364;-1.488;2023-04-19T01:04:24;101789.31;;;15.76;41.13
29879;BME280;16752;53.364;-1.488;2023-04-19T01:07:08;101844.03;;;16.15;40.87
29879;BME280;16752;53.364;-1.488;2023-04-19T01:09:52;101819.81;;;15.67;41.78
29879;BME280;16752;53.364;-1.488;2023-04-19T01:12:36;101770.50;;;15.80;40.41
29879;BME280;16752;53.364;-1.488;2023-04-19T01:15:20;101830.84;;;16.28;40.59
29879;BME280;16752;53.364;-1.488;2023-04-19T01:18:05;101791.47;;;16.10;40.46
29879;BME280;16752;53.364;-1.488;2023-04-19T01:20:49;101788.41;;;16.16;39.96
29879;BME280;16752;53.364;-1.488;2023-04-19T01:23:33;101768.88;;;16.05;40.16
29879;BME280;16752;53.364;-1.488;2023-04-19T01:26:17;101722.94;;;15.68;40.17
29879;BME280;16752;53.364;-1.488;2023-04-19T01:29:02;101807.00;;;16.15;40.35
29879;BME280;16752;53.364;-1.488;2023-04-19T01:31:47;101789.50;;;16.27;39.70
29879;BME280;16752;53.364;-1.488;2023-04-19T01:34:36;101715.47;;;15.60;40.29
29879;BME280;16752;53.364;-1.488;2023-04-19T01:37:20;101727.22;;;15.96;39.79
29879;BME280;16752;53.364;-1.488;2023-04-19T01:40:04;101815.94;;;16.39;40.18
29879;BME280;16752;53.364;-1.488;2023-04-19T01:42:48;101734.00;;;16.00;40.24
29879;BME280;16752;53.364;-1.488;2023-04-19T01:45:33;101730.41;;;16.01;39.72
29879;BME280;16752;53.364;-1.488;2023-04-19T01:48:19;101787.38;;;16.32;39.86
29879;BME280;16752;53.364;-1.488;2023-04-19T01:51:03;101758.03;;;16.22;39.41
29879;BME280;16752;53.364;-1.488;2023-04-19T01:53:47;101735.69;;;16.01;39.54
29879;BME280;16752;53.364;-1.488;2023-04-19T01:56:36;101797.44;;;16.39;39.86
29879;BME280;16752;53.364;-1.488;2023-04-19T01:59:20;101700.84;;;15.81;40.35
29879;BME280;16752;53.364;-1.488;2023-04-19T02:02:07;101698.22;;;15.27;41.21
29879;BME280;16752;53.364;-1.488;2023-04-19T02:04:51;101719.41;;;15.94;40.36
29879;BME280;16752;53.364;-1.488;2023-04-19T02:07:36;101712.16;;;15.29;41.28
29879;BME280;16752;53.364;-1.488;2023-04-19T02:10:20;101742.03;;;15.98;40.55
29879;BME280;16752;53.364;-1.488;2023-04-19T02:13:04;101714.84;;;15.83;40.61
29879;BME280;16752;53.364;-1.488;2023-04-19T02:15:48;101689.44;;;15.68;40.63
29879;BME280;16752;53.364;-1.488;2023-04-19T02:18:32;101698.63;;;15.75;40.52
29879;BME280;16752;53.364;-1.488;2023-04-19T02:21:18;101733.72;;;16.17;40.10
29879;BME280;16752;53.364;-1.488;2023-04-19T02:24:02;101713.06;;;15.97;40.22
29879;BME280;16752;53.364;-1.488;2023-04-19T02:26:46;101778.41;;;15.95;41.58
29879;BME280;16752;53.364;-1.488;2023-04-19T02:29:30;101713.81;;;15.99;40.51
29879;BME280;16752;53.364;-1.488;2023-04-19T02:32:13;101731.91;;;16.17;40.33
29879;BME280;16752;53.364;-1.488;2023-04-19T02:34:57;101679.97;;;15.91;39.90
29879;BME280;16752;53.364;-1.488;2023-04-19T02:37:43;101757.97;;;15.84;41.02
29879;BME280;16752;53.364;-1.488;2023-04-19T02:40:27;101730.38;;;15.88;41.38
29879;BME280;16752;53.364;-1.488;2023-04-19T02:43:11;101763.22;;;16.11;41.20
29879;BME280;16752;53.364;-1.488;2023-04-19T02:45:55;101707.34;;;15.90;40.93
29879;BME280;16752;53.364;-1.488;2023-04-19T02:48:39;101734.69;;;16.29;40.18
29879;BME280;16752;53.364;-1.488;2023-04-19T02:51:23;101704.41;;;16.20;40.13
29879;BME280;16752;53.364;-1.488;2023-04-19T02:54:06;101763.28;;;16.62;40.12
29879;BME280;16752;53.364;-1.488;2023-04-19T02:56:50;101682.22;;;16.10;40.00
29879;BME280;16752;53.364;-1.488;2023-04-19T02:59:34;101762.88;;;16.68;39.93
29879;BME280;16752;53.364;-1.488;2023-04-19T03:02:18;101752.06;;;16.58;39.85
29879;BME280;16752;53.364;-1.488;2023-04-19T03:05:02;101637.56;;;15.93;40.30
29879;BME280;16752;53.364;-1.488;2023-04-19T03:07:47;101709.09;;;16.16;40.77
29879;BME280;16752;53.364;-1.488;2023-04-19T03:10:31;101730.78;;;16.47;40.29
29879;BME280;16752;53.364;-1.488;2023-04-19T03:13:14;101707.44;;;15.88;41.48
29879;BME280;16752;53.364;-1.488;2023-04-19T03:15:58;101746.56;;;16.61;40.50
29879;BME280;16752;53.364;-1.488;2023-04-19T03:18:43;101709.53;;;16.48;40.45
29879;BME280;16752;53.364;-1.488;2023-04-19T03:21:27;101730.38;;;16.53;40.30
29879;BME280;16752;53.364;-1.488;2023-04-19T03:24:12;101659.25;;;16.23;40.31
29879;BME280;16752;53.364;-1.488;2023-04-19T03:26:56;101707.81;;;16.47;40.28
29879;BME280;16752;53.364;-1.488;2023-04-19T03:29:41;101677.78;;;16.23;40.71
29879;BME280;16752;53.364;-1.488;2023-04-19T03:32:25;101695.25;;;16.38;40.71
29879;BME280;16752;53.364;-1.488;2023-04-19T03:35:09;101697.69;;;16.29;41.48
29879;BME280;16752;53.364;-1.488;2023-04-19T03:37:54;101722.84;;;16.60;40.80
29879;BME280;16752;53.364;-1.488;2023-04-19T03:40:38;101720.09;;;16.61;40.55
29879;BME280;16752;53.364;-1.488;2023-04-19T03:43:22;101682.56;;;16.31;40.91
29879;BME280;16752;53.364;-1.488;2023-04-19T03:46:06;101750.38;;;16.83;40.85
29879;BME280;16752;53.364;-1.488;2023-04-19T03:48:51;101744.69;;;16.76;40.97
29879;BME280;16752;53.364;-1.488;2023-04-19T03:51:35;101726.25;;;16.49;41.62
29879;BME280;16752;53.364;-1.488;2023-04-19T03:54:19;101670.91;;;16.20;41.32
29879;BME280;16752;53.364;-1.488;2023-04-19T03:57:03;101756.09;;;16.51;41.72
29879;BME280;16752;53.364;-1.488;2023-04-19T03:59:48;101722.84;;;16.60;41.09
29879;BME280;16752;53.364;-1.488;2023-04-19T04:02:32;101753.16;;;16.81;41.17
29879;BME280;16752;53.364;-1.488;2023-04-19T04:05:17;101728.06;;;16.74;41.01
29879;BME280;16752;53.364;-1.488;2023-04-19T04:08:01;101710.06;;;16.54;41.56
29879;BME280;16752;53.364;-1.488;2023-04-19T04:10:45;101729.44;;;16.67;41.43
29879;BME280;16752;53.364;-1.488;2023-04-19T04:13:28;101687.31;;;16.38;41.53
29879;BME280;16752;53.364;-1.488;2023-04-19T04:16:13;101715.34;;;16.54;41.85
29879;BME280;16752;53.364;-1.488;2023-04-19T04:18:57;101739.41;;;16.76;42.03
29879;BME280;16752;53.364;-1.488;2023-04-19T04:21:42;101687.63;;;16.34;42.11
29879;BME280;16752;53.364;-1.488;2023-04-19T04:24:25;101739.81;;;16.95;41.51
29879;BME280;16752;53.364;-1.488;2023-04-19T04:27:10;101745.09;;;16.70;42.25
29879;BME280;16752;53.364;-1.488;2023-04-19T04:29:55;101725.63;;;16.84;41.96
29879;BME280;16752;53.364;-1.488;2023-04-19T04:32:39;101666.03;;;16.53;41.82
29879;BME280;16752;53.364;-1.488;2023-04-19T04:35:24;101750.28;;;16.84;42.60
29879;BME280;16752;53.364;-1.488;2023-04-19T04:38:08;101709.13;;;16.80;42.01
29879;BME280;16752;53.364;-1.488;2023-04-19T04:40:54;101696.31;;;16.74;41.96
29879;BME280;16752;53.364;-1.488;2023-04-19T04:43:39;101741.22;;;17.12;41.96
29879;BME280;16752;53.364;-1.488;2023-04-19T04:46:23;101669.09;;;16.21;42.97
29879;BME280;16752;53.364;-1.488;2023-04-19T04:49:08;101760.22;;;16.55;43.30
29879;BME280;16752;53.364;-1.488;2023-04-19T04:51:52;101729.44;;;16.79;42.30
29879;BME280;16752;53.364;-1.488;2023-04-19T04:54:35;101674.16;;;16.24;43.16
29879;BME280;16752;53.364;-1.488;2023-04-19T04:57:19;101738.56;;;16.75;43.18
29879;BME280;16752;53.364;-1.488;2023-04-19T05:00:04;101718.25;;;15.98;44.45
29879;BME280;16752;53.364;-1.488;2023-04-19T05:02:50;101733.56;;;16.96;42.41
29879;BME280;16752;53.364;-1.488;2023-04-19T05:05:34;101713.88;;;16.75;42.91
29879;BME280;16752;53.364;-1.488;2023-04-19T05:08:18;101710.34;;;16.87;42.00
29879;BME280;16752;53.364;-1.488;2023-04-19T05:11:02;101691.97;;;16.73;42.16
29879;BME280;16752;53.364;-1.488;2023-04-19T05:13:46;101690.25;;;16.59;42.45
29879;BME280;16752;53.364;-1.488;2023-04-19T05:16:31;101731.25;;;16.79;43.09
29879;BME280;16752;53.364;-1.488;2023-04-19T05:19:16;101760.72;;;17.24;42.16
29879;BME280;16752;53.364;-1.488;2023-04-19T05:21:59;101692.72;;;16.49;43.07
29879;BME280;16752;53.364;-1.488;2023-04-19T05:24:43;101708.88;;;16.19;43.99
29879;BME280;16752;53.364;-1.488;2023-04-19T05:27:27;101698.53;;;16.55;43.03
29879;BME280;16752;53.364;-1.488;2023-04-19T05:30:11;101743.91;;;16.99;42.67
29879;BME280;16752;53.364;-1.488;2023-04-19T05:32:55;101689.13;;;16.76;42.24
29879;BME280;16752;53.364;-1.488;2023-04-19T05:35:39;101730.97;;;17.07;41.97
29879;BME280;16752;53.364;-1.488;2023-04-19T05:38:23;101717.56;;;16.60;42.89
29879;BME280;16752;53.364;-1.488;2023-04-19T05:41:07;101743.69;;;17.15;42.30
29879;BME280;16752;53.364;-1.488;2023-04-19T05:43:51;101690.47;;;16.69;42.19
29879;BME280;16752;53.364;-1.488;2023-04-19T05:46:35;101695.78;;;16.56;42.75
29879;BME280;16752;53.364;-1.488;2023-04-19T05:49:19;101721.50;;;16.67;42.81
29879;BME280;16752;53.364;-1.488;2023-04-19T05:52:03;101720.84;;;16.89;41.93
29879;BME280;16752;53.364;-1.488;2023-04-19T05:54:47;101714.47;;;16.66;42.69
29879;BME280;16752;53.364;-1.488;2023-04-19T05:57:32;101680.84;;;16.17;43.50
29879;BME280;16752;53.364;-1.488;2023-04-19T06:00:16;101706.69;;;16.77;42.48
29879;BME280;16752;53.364;-1.488;2023-04-19T06:03:00;101757.03;;;17.14;42.30
29879;BME280;16752;53.364;-1.488;2023-04-19T06:05:44;101760.34;;;16.92;42.25
29879;BME280;16752;53.364;-1.488;2023-04-19T06:08:28;101786.16;;;17.01;42.62
29879;BME280;16752;53.364;-1.488;2023-04-19T06:11:12;101751.66;;;16.52;43.43
29879;BME280;16752;53.364;-1.488;2023-04-19T06:13:56;101752.72;;;17.00;42.22
29879;BME280;16752;53.364;-1.488;2023-04-19T06:16:40;101762.34;;;17.14;42.04
29879;BME280;16752;53.364;-1.488;2023-04-19T06:19:24;101780.28;;;17.34;41.88
29879;BME280;16752;53.364;-1.488;2023-04-19T06:22:08;101791.19;;;17.42;42.03
29879;BME280;16752;53.364;-1.488;2023-04-19T06:24:52;101769.06;;;17.30;41.81
29879;BME280;16752;53.364;-1.488;2023-04-19T06:27:36;101774.59;;;16.64;43.77
29879;BME280;16752;53.364;-1.488;2023-04-19T06:30:20;101757.91;;;17.01;42.71
29879;BME280;16752;53.364;-1.488;2023-04-19T06:33:04;101743.50;;;16.80;43.06
29879;BME280;16752;53.364;-1.488;2023-04-19T06:35:48;101755.13;;;17.03;42.38
29879;BME280;16752;53.364;-1.488;2023-04-19T06:38:33;101792.72;;;17.21;42.48
29879;BME280;16752;53.364;-1.488;2023-04-19T06:41:17;101794.91;;;17.27;42.75
29879;BME280;16752;53.364;-1.488;2023-04-19T06:44:00;101798.06;;;17.32;42.40
29879;BME280;16752;53.364;-1.488;2023-04-19T06:46:44;101783.28;;;17.53;41.76
29879;BME280;16752;53.364;-1.488;2023-04-19T06:49:28;101768.28;;;16.66;43.58
29879;BME280;16752;53.364;-1.488;2023-04-19T06:52:13;101742.91;;;17.26;41.88
29879;BME280;16752;53.364;-1.488;2023-04-19T06:54:57;101689.41;;;16.84;42.14
29879;BME280;16752;53.364;-1.488;2023-04-19T06:57:41;101742.69;;;17.29;42.03
29879;BME280;16752;53.364;-1.488;2023-04-19T07:00:25;101751.94;;;17.47;41.95
29879;BME280;16752;53.364;-1.488;2023-04-19T07:03:09;101714.34;;;17.18;42.01
29879;BME280;16752;53.364;-1.488;2023-04-19T07:05:53;101717.66;;;17.33;41.59
29879;BME280;16752;53.364;-1.488;2023-04-19T07:08:39;101704.09;;;17.37;41.40
29879;BME280;16752;53.364;-1.488;2023-04-19T07:11:23;101750.84;;;17.62;41.18
29879;BME280;16752;53.364;-1.488;2023-04-19T07:14:07;101794.78;;;17.41;42.43
29879;BME280;16752;53.364;-1.488;2023-04-19T07:16:51;101758.88;;;17.74;41.15
29879;BME280;16752;53.364;-1.488;2023-04-19T07:19:36;101745.22;;;17.54;41.44
29879;BME280;16752;53.364;-1.488;2023-04-19T07:22:20;101753.84;;;17.58;41.99
29879;BME280;16752;53.364;-1.488;2023-04-19T07:25:05;101796.13;;;17.59;42.40
29879;BME280;16752;53.364;-1.488;2023-04-19T07:27:51;101776.50;;;17.13;42.78
29879;BME280;16752;53.364;-1.488;2023-04-19T07:30:36;101719.53;;;17.20;42.08
29879;BME280;16752;53.364;-1.488;2023-04-19T07:33:21;101774.69;;;17.26;42.63
29879;BME280;16752;53.364;-1.488;2023-04-19T07:36:06;101699.03;;;17.58;40.75
29879;BME280;16752;53.364;-1.488;2023-04-19T07:38:50;101760.22;;;18.03;41.26
29879;BME280;16752;53.364;-1.488;2023-04-19T07:41:35;101765.94;;;17.49;42.03
29879;BME280;16752;53.364;-1.488;2023-04-19T07:44:18;101755.94;;;18.24;40.52
29879;BME280;16752;53.364;-1.488;2023-04-19T07:47:03;101732.91;;;18.25;40.56
29879;BME280;16752;53.364;-1.488;2023-04-19T07:49:52;101760.41;;;17.89;40.66
29879;BME280;16752;53.364;-1.488;2023-04-19T07:52:36;101782.19;;;18.16;41.20
29879;BME280;16752;53.364;-1.488;2023-04-19T07:55:21;101775.31;;;18.60;39.88
29879;BME280;16752;53.364;-1.488;2023-04-19T07:58:05;101773.09;;;18.67;39.78
29879;BME280;16752;53.364;-1.488;2023-04-19T08:00:49;101761.19;;;18.59;39.87
29879;BME280;16752;53.364;-1.488;2023-04-19T08:03:33;101746.16;;;17.29;42.36
29879;BME280;16752;53.364;-1.488;2023-04-19T08:06:17;101806.66;;;18.44;40.73
29879;BME280;16752;53.364;-1.488;2023-04-19T08:09:07;101740.72;;;18.15;41.03
29879;BME280;16752;53.364;-1.488;2023-04-19T08:11:54;101744.94;;;18.64;39.92
29879;BME280;16752;53.364;-1.488;2023-04-19T08:14:39;101746.88;;;18.84;39.73
29879;BME280;16752;53.364;-1.488;2023-04-19T08:17:23;101770.56;;;18.99;39.61
29879;BME280;16752;53.364;-1.488;2023-04-19T08:20:09;101742.31;;;18.75;39.87
29879;BME280;16752;53.364;-1.488;2023-04-19T08:22:54;101753.63;;;19.33;38.72
29879;BME280;16752;53.364;-1.488;2023-04-19T08:25:38;101758.31;;;19.30;38.61
29879;BME280;16752;53.364;-1.488;2023-04-19T08:28:22;101754.88;;;18.96;39.85
29879;BME280;16752;53.364;-1.488;2023-04-19T08:31:06;101801.22;;;19.25;38.83
29879;BME280;16752;53.364;-1.488;2023-04-19T08:33:51;101760.38;;;19.37;38.32
29879;BME280;16752;53.364;-1.488;2023-04-19T08:36:35;101752.66;;;19.23;39.01
29879;BME280;16752;53.364;-1.488;2023-04-19T08:39:19;101770.50;;;19.43;38.50
29879;BME280;16752;53.364;-1.488;2023-04-19T08:42:07;101702.72;;;18.83;38.85
29879;BME280;16752;53.364;-1.488;2023-04-19T08:44:53;101778.69;;;19.74;38.10
29879;BME280;16752;53.364;-1.488;2023-04-19T08:47:41;101738.91;;;19.18;39.03
29879;BME280;16752;53.364;-1.488;2023-04-19T08:50:26;101798.69;;;19.01;39.49
29879;BME280;16752;53.364;-1.488;2023-04-19T08:53:10;101773.00;;;18.09;41.13
29879;BME280;16752;53.364;-1.488;2023-04-19T08:55:54;101805.69;;;19.36;39.50
29879;BME280;16752;53.364;-1.488;2023-04-19T08:58:41;101757.75;;;19.15;39.38
29879;BME280;16752;53.364;-1.488;2023-04-19T09:01:25;101754.22;;;19.37;39.32
29879;BME280;16752;53.364;-1.488;2023-04-19T09:04:09;101796.94;;;19.78;38.85
29879;BME280;16752;53.364;-1.488;2023-04-19T09:06:54;101737.34;;;19.04;39.48
29879;BME280;16752;53.364;-1.488;2023-04-19T09:09:38;101752.81;;;19.76;38.61
29879;BME280;16752;53.364;-1.488;2023-04-19T09:12:25;101728.00;;;19.55;38.53
29879;BME280;16752;53.364;-1.488;2023-04-19T09:15:09;101741.03;;;19.46;39.27
29879;BME280;16752;53.364;-1.488;2023-04-19T09:18:05;101764.34;;;19.97;38.28
29879;BME280;16752;53.364;-1.488;2023-04-19T09:20:49;101768.97;;;20.37;38.02
29879;BME280;16752;53.364;-1.488;2023-04-19T09:23:45;101728.53;;;19.15;39.87
29879;BME280;16752;53.364;-1.488;2023-04-19T09:26:30;101699.53;;;19.98;38.39
29879;BME280;16752;53.364;-1.488;2023-04-19T09:29:15;101746.22;;;20.44;38.07
29879;BME280;16752;53.364;-1.488;2023-04-19T09:32:00;101767.63;;;20.63;37.84
29879;BME280;16752;53.364;-1.488;2023-04-19T09:34:52;101750.41;;;20.67;37.70
29879;BME280;16752;53.364;-1.488;2023-04-19T09:37:37;101730.31;;;21.24;35.79
29879;BME280;16752;53.364;-1.488;2023-04-19T09:40:24;101732.63;;;21.48;36.05
29879;BME280;16752;53.364;-1.488;2023-04-19T09:43:10;101724.78;;;21.76;35.15
29879;BME280;16752;53.364;-1.488;2023-04-19T09:45:55;101783.22;;;22.08;35.91
29879;BME280;16752;53.364;-1.488;2023-04-19T09:48:39;101777.84;;;21.88;36.04
29879;BME280;16752;53.364;-1.488;2023-04-19T09:51:39;101747.38;;;22.01;35.21
29879;BME280;16752;53.364;-1.488;2023-04-19T09:54:24;101730.94;;;21.57;35.36
29879;BME280;16752;53.364;-1.488;2023-04-19T09:57:10;101774.06;;;22.01;35.85
29879;BME280;16752;53.364;-1.488;2023-04-19T09:59:55;101769.69;;;22.58;34.75
29879;BME280;16752;53.364;-1.488;2023-04-19T10:02:39;101723.91;;;21.65;36.79
29879;BME280;16752;53.364;-1.488;2023-04-19T10:05:24;101737.97;;;21.87;36.07
29879;BME280;16752;53.364;-1.488;2023-04-19T10:08:10;101728.28;;;21.76;35.13
29879;BME280;16752;53.364;-1.488;2023-04-19T10:10:55;101752.00;;;21.79;35.89
29879;BME280;16752;53.364;-1.488;2023-04-19T10:13:39;101709.34;;;21.79;35.25
29879;BME280;16752;53.364;-1.488;2023-04-19T10:16:25;101717.56;;;20.88;37.17
29879;BME280;16752;53.364;-1.488;2023-04-19T10:19:11;101755.25;;;21.23;36.84
29879;BME280;16752;53.364;-1.488;2023-04-19T10:21:56;101723.06;;;21.26;36.44
29879;BME280;16752;53.364;-1.488;2023-04-19T10:25:13;101758.41;;;21.28;36.93
29879;BME280;16752;53.364;-1.488;2023-04-19T10:27:58;101692.88;;;19.72;39.44
29879;BME280;16752;53.364;-1.488;2023-04-19T10:30:53;101763.63;;;21.09;37.96
29879;BME280;16752;53.364;-1.488;2023-04-19T10:33:39;101753.13;;;20.77;37.73
29879;BME280;16752;53.364;-1.488;2023-04-19T10:36:26;101714.22;;;20.95;37.66
29879;BME280;16752;53.364;-1.488;2023-04-19T10:39:43;101702.63;;;20.66;39.12
29879;BME280;16752;53.364;-1.488;2023-04-19T10:45:58;101692.47;;;22.08;35.29
29879;BME280;16752;53.364;-1.488;2023-04-19T10:48:56;101740.50;;;21.98;35.37
29879;BME280;16752;53.364;-1.488;2023-04-19T10:51:48;101749.63;;;21.57;36.66
29879;BME280;16752;53.364;-1.488;2023-04-19T10:54:33;101714.63;;;22.37;34.53
29879;BME280;16752;53.364;-1.488;2023-04-19T10:57:20;101648.41;;;21.46;35.17
29879;BME280;16752;53.364;-1.488;2023-04-19T11:00:20;101660.34;;;21.80;35.15
29879;BME280;16752;53.364;-1.488;2023-04-19T11:06:26;101737.00;;;22.17;35.33
29879;BME280;16752;53.364;-1.488;2023-04-19T11:09:23;101704.28;;;21.76;35.39
29879;BME280;16752;53.364;-1.488;2023-04-19T11:12:10;101686.00;;;22.20;36.08
29879;BME280;16752;53.364;-1.488;2023-04-19T11:14:58;101699.06;;;21.84;35.22
29879;BME280;16752;53.364;-1.488;2023-04-19T11:17:43;101657.09;;;22.15;34.21
29879;BME280;16752;53.364;-1.488;2023-04-19T11:20:27;101729.81;;;22.27;35.06
29879;BME280;16752;53.364;-1.488;2023-04-19T11:23:17;101733.28;;;22.94;34.12
29879;BME280;16752;53.364;-1.488;2023-04-19T11:26:01;101709.53;;;23.36;32.65
29879;BME280;16752;53.364;-1.488;2023-04-19T11:28:45;101703.78;;;23.76;32.13
29879;BME280;16752;53.364;-1.488;2023-04-19T11:31:31;101666.22;;;23.14;32.30
29879;BME280;16752;53.364;-1.488;2023-04-19T11:34:21;101670.13;;;23.91;31.07
29879;BME280;16752;53.364;-1.488;2023-04-19T11:37:05;101669.50;;;23.97;31.40
29879;BME280;16752;53.364;-1.488;2023-04-19T11:39:50;101671.28;;;23.53;31.68
29879;BME280;16752;53.364;-1.488;2023-04-19T11:42:43;101635.34;;;24.25;31.02
29879;BME280;16752;53.364;-1.488;2023-04-19T11:45:36;101661.00;;;24.02;31.43
29879;BME280;16752;53.364;-1.488;2023-04-19T11:48:20;101678.56;;;24.90;30.69
29879;BME280;16752;53.364;-1.488;2023-04-19T11:51:05;101696.28;;;24.49;30.71
29879;BME280;16752;53.364;-1.488;2023-04-19T11:53:49;101657.88;;;25.09;30.26
29879;BME280;16752;53.364;-1.488;2023-04-19T11:56:33;101678.59;;;25.89;28.62
29879;BME280;16752;53.364;-1.488;2023-04-19T11:59:17;101666.41;;;26.59;28.21
29879;BME280;16752;53.364;-1.488;2023-04-19T12:04:48;101636.66;;;24.81;28.89
29879;BME280;16752;53.364;-1.488;2023-04-19T12:07:34;101675.13;;;24.72;29.02
29879;BME280;16752;53.364;-1.488;2023-04-19T12:10:19;101689.75;;;25.20;28.92
29879;BME280;16752;53.364;-1.488;2023-04-19T12:13:17;101638.16;;;24.84;29.12
29879;BME280;16752;53.364;-1.488;2023-04-19T12:16:01;101661.38;;;24.67;29.31
29879;BME280;16752;53.364;-1.488;2023-04-19T12:18:50;101645.09;;;24.94;28.29
29879;BME280;16752;53.364;-1.488;2023-04-19T12:21:34;101679.41;;;24.05;29.69
29879;BME280;16752;53.364;-1.488;2023-04-19T12:24:18;101666.59;;;24.68;28.36
29879;BME280;16752;53.364;-1.488;2023-04-19T12:27:03;101636.81;;;23.50;30.81
29879;BME280;16752;53.364;-1.488;2023-04-19T12:29:47;101682.56;;;24.26;29.94
29879;BME280;16752;53.364;-1.488;2023-04-19T12:32:31;101678.03;;;24.79;28.76
29879;BME280;16752;53.364;-1.488;2023-04-19T12:35:15;101691.22;;;25.06;29.52
29879;BME280;16752;53.364;-1.488;2023-04-19T12:37:59;101671.53;;;25.48;27.49
29879;BME280;16752;53.364;-1.488;2023-04-19T12:40:44;101675.25;;;26.67;26.78
29879;BME280;16752;53.364;-1.488;2023-04-19T12:43:29;101664.00;;;25.92;26.56
29879;BME280;16752;53.364;-1.488;2023-04-19T12:46:14;101660.66;;;25.74;26.05
29879;BME280;16752;53.364;-1.488;2023-04-19T12:48:58;101616.16;;;25.96;25.30
29879;BME280;16752;53.364;-1.488;2023-04-19T12:51:42;101634.09;;;25.30;25.19
29879;BME280;16752;53.364;-1.488;2023-04-19T12:54:26;101665.25;;;26.53;24.53
29879;BME280;16752;53.364;-1.488;2023-04-19T12:57:10;101629.72;;;27.05;24.54
29879;BME280;16752;53.364;-1.488;2023-04-19T12:59:54;101649.34;;;27.82;23.77
29879;BME280;16752;53.364;-1.488;2023-04-19T13:02:38;101629.34;;;27.08;22.86
29879;BME280;16752;53.364;-1.488;2023-04-19T13:05:21;101614.25;;;26.37;23.58
29879;BME280;16752;53.364;-1.488;2023-04-19T13:08:05;101665.44;;;26.91;23.29
29879;BME280;16752;53.364;-1.488;2023-04-19T13:10:50;101648.66;;;27.65;20.78
29879;BME280;16752;53.364;-1.488;2023-04-19T13:13:34;101625.13;;;26.83;23.40
29879;BME280;16752;53.364;-1.488;2023-04-19T13:16:18;101678.97;;;27.36;23.78
29879;BME280;16752;53.364;-1.488;2023-04-19T13:19:02;101655.88;;;26.80;23.21
29879;BME280;16752;53.364;-1.488;2023-04-19T13:21:46;101653.00;;;26.90;23.13
29879;BME280;16752;53.364;-1.488;2023-04-19T13:24:30;101633.31;;;27.20;22.52
29879;BME280;16752;53.364;-1.488;2023-04-19T13:27:14;101646.78;;;27.66;21.77
29879;BME280;16752;53.364;-1.488;2023-04-19T13:29:58;101649.31;;;26.83;22.25
29879;BME280;16752;53.364;-1.488;2023-04-19T13:32:43;101682.22;;;27.92;20.62
29879;BME280;16752;53.364;-1.488;2023-04-19T13:35:27;101649.72;;;27.33;20.64
29879;BME280;16752;53.364;-1.488;2023-04-19T13:38:12;101651.94;;;25.72;21.42
29879;BME280;16752;53.364;-1.488;2023-04-19T13:40:57;101605.13;;;27.16;20.42
29879;BME280;16752;53.364;-1.488;2023-04-19T13:43:41;101604.13;;;27.55;19.70
29879;BME280;16752;53.364;-1.488;2023-04-19T13:46:25;101600.69;;;27.23;21.32
29879;BME280;16752;53.364;-1.488;2023-04-19T13:49:09;101623.38;;;28.04;19.34
29879;BME280;16752;53.364;-1.488;2023-04-19T13:51:53;101610.13;;;28.32;18.14
29879;BME280;16752;53.364;-1.488;2023-04-19T13:54:37;101653.81;;;28.27;19.03
29879;BME280;16752;53.364;-1.488;2023-04-19T13:57:24;101658.69;;;27.49;19.52
29879;BME280;16752;53.364;-1.488;2023-04-19T14:00:08;101661.03;;;28.86;17.61
29879;BME280;16752;53.364;-1.488;2023-04-19T14:02:53;101605.81;;;28.67;16.99
29879;BME280;16752;53.364;-1.488;2023-04-19T14:05:37;101596.63;;;28.03;17.30
29879;BME280;16752;53.364;-1.488;2023-04-19T14:08:22;101579.34;;;27.82;17.28
29879;BME280;16752;53.364;-1.488;2023-04-19T14:11:09;101602.84;;;28.47;17.88
29879;BME280;16752;53.364;-1.488;2023-04-19T14:13:54;101619.56;;;29.72;14.80
29879;BME280;16752;53.364;-1.488;2023-04-19T14:16:39;101642.75;;;30.16;14.30
29879;BME280;16752;53.364;-1.488;2023-04-19T14:19:23;101659.44;;;28.92;15.25
29879;BME280;16752;53.364;-1.488;2023-04-19T14:22:07;101652.66;;;30.37;14.81